Time;durP1;ratioP1;P1;durP2;ratioP2;P2;SDS_P1;SDS_P2;PMS_P1;PMS_P2;Temp;Humidity;BMP_temperature;BMP_pressure;BME280_temperature;BME280_humidity;BME280_pressure;Samples;Min_cycle;Max_cycle;Signal;HPM_P1;HPM_P2
2022/12/20 00:00:46;;;;;;;;;;;-1.40;90.10;;;;;;5034793;28;19924;-76
2022/12/20 00:03:12;;;;;;;;;;;-1.40;90.10;;;;;;5019231;28;20008;-76
2022/12/20 00:05:38;;;;;;;;;;;-1.40;90.10;;;;;;5035197;28;19927;-76
2022/12/20 00:08:03;;;;;;;;;;;-1.30;90.10;;;;;;5035109;28;19927;-76
2022/12/20 00:10:29;;;;;;;;;;;-1.30;90.10;;;;;;5039271;28;19939;-76
2022/12/20 00:12:54;;;;;;;;;;;-1.30;90.20;;;;;;5042628;28;20462;-76
2022/12/20 00:15:20;;;;;;;;;;;-1.30;90.10;;;;;;5039299;28;19967;-76
2022/12/20 00:17:45;;;;;;;;;;;-1.20;90.10;;;;;;5037997;28;19916;-76
2022/12/20 00:20:11;;;;;;;;;;;-1.20;90.10;;;;;;5055301;28;19920;-76
2022/12/20 00:22:36;;;;;;;;;;;-1.20;90.20;;;;;;5053221;28;19986;-76
2022/12/20 00:25:02;;;;;;;;;;;-1.10;90.20;;;;;;5039286;28;19920;-75
2022/12/20 00:27:27;;;;;;;;;;;-1.10;90.20;;;;;;5040692;28;20350;-77
2022/12/20 00:29:53;;;;;;;;;;;-1.00;90.50;;;;;;5041809;28;19921;-77
2022/12/20 00:32:18;;;;;;;;;;;-1.00;90.20;;;;;;5039242;28;19916;-77
2022/12/20 00:34:44;;;;;;;;;;;-1.00;90.10;;;;;;5042760;28;19960;-77
2022/12/20 00:37:09;;;;;;;;;;;-0.90;90.10;;;;;;5044571;28;19920;-76
2022/12/20 00:39:35;;;;;;;;;;;-0.90;90.10;;;;;;5042104;28;19920;-76
2022/12/20 00:42:00;;;;;;;;;;;-0.90;90.00;;;;;;5042669;28;20647;-77
2022/12/20 00:44:27;;;;;;;;;;;-0.80;90.10;;;;;;5040873;28;19928;-75
2022/12/20 00:46:52;;;;;;;;;;;-0.80;90.10;;;;;;5041764;28;20370;-76
2022/12/20 00:49:18;;;;;;;;;;;-0.80;90.10;;;;;;5052594;28;19970;-76
2022/12/20 00:51:43;;;;;;;;;;;-0.80;90.10;;;;;;5036773;28;19920;-77
2022/12/20 00:54:09;;;;;;;;;;;-0.70;90.10;;;;;;5038269;28;20147;-77
2022/12/20 00:56:34;;;;;;;;;;;-0.70;90.40;;;;;;5038573;28;19971;-75
2022/12/20 00:59:00;;;;;;;;;;;-0.70;90.10;;;;;;5037331;28;19974;-77
2022/12/20 01:01:26;;;;;;;;;;;-0.60;90.10;;;;;;5025433;28;19927;-75
2022/12/20 01:03:52;;;;;;;;;;;-0.60;90.10;;;;;;5020881;28;19921;-76
2022/12/20 01:06:17;;;;;;;;;;;-0.60;90.10;;;;;;5020682;28;19920;-76
2022/12/20 01:08:43;;;;;;;;;;;-0.50;90.10;;;;;;5034237;28;19933;-77
2022/12/20 01:11:08;;;;;;;;;;;-0.50;90.10;;;;;;5039740;28;19928;-76
2022/12/20 01:13:34;;;;;;;;;;;-0.50;90.10;;;;;;5039404;28;19924;-77
2022/12/20 01:16:03;;;;;;;;;;;-0.50;90.10;;;;;;5037705;28;19928;-76
2022/12/20 01:18:29;;;;;;;;;;;-0.50;90.10;;;;;;5036980;28;19967;-76
2022/12/20 01:21:01;;;;;;;;;;;-0.40;90.40;;;;;;5041956;28;20387;-76
2022/12/20 01:23:27;;;;;;;;;;;-0.40;90.10;;;;;;5027500;28;20015;-76
2022/12/20 01:25:52;;;;;;;;;;;-0.40;90.10;;;;;;5037510;28;20363;-77
2022/12/20 01:28:18;;;;;;;;;;;-0.40;90.00;;;;;;5049146;28;20687;-77
2022/12/20 01:30:43;;;;;;;;;;;-0.30;90.00;;;;;;5055168;28;19994;-76
2022/12/20 01:33:09;;;;;;;;;;;-0.30;90.00;;;;;;5023247;28;19920;-76
2022/12/20 01:35:34;;;;;;;;;;;-0.30;90.00;;;;;;5039242;28;19920;-77
2022/12/20 01:38:00;;;;;;;;;;;-0.30;90.00;;;;;;5038752;28;20011;-77
2022/12/20 01:40:25;;;;;;;;;;;-0.20;90.10;;;;;;5035993;28;20413;-75
2022/12/20 01:42:51;;;;;;;;;;;-0.20;90.00;;;;;;5038836;28;19916;-76
2022/12/20 01:45:41;;;;;;;;;;;-0.20;90.00;;;;;;5040457;28;19924;-76
2022/12/20 01:48:07;;;;;;;;;;;-0.20;90.00;;;;;;5041232;28;20476;-75
2022/12/20 01:50:33;;;;;;;;;;;-0.10;90.40;;;;;;5035914;28;19921;-76
2022/12/20 01:52:59;;;;;;;;;;;-0.10;90.00;;;;;;5038880;28;20037;-76
2022/12/20 01:55:25;;;;;;;;;;;-0.10;90.00;;;;;;5039223;28;19920;-76
2022/12/20 01:57:55;;;;;;;;;;;-0.10;90.00;;;;;;5035041;28;20365;-76
2022/12/20 02:00:21;;;;;;;;;;;-0.10;90.00;;;;;;5035323;28;19970;-75
2022/12/20 02:02:46;;;;;;;;;;;0.00;90.00;;;;;;5036818;28;19928;-77
2022/12/20 02:05:13;;;;;;;;;;;0.00;90.00;;;;;;5050720;28;20059;-76
2022/12/20 02:07:39;;;;;;;;;;;0.00;90.00;;;;;;5036144;28;20012;-76
2022/12/20 02:10:04;;;;;;;;;;;0.00;90.00;;;;;;5036985;28;20086;-76
2022/12/20 02:12:37;;;;;;;;;;;0.00;90.00;;;;;;5051582;28;20414;-76
2022/12/20 02:15:10;;;;;;;;;;;0.10;90.00;;;;;;5035817;28;19917;-76
2022/12/20 02:17:45;;;;;;;;;;;0.10;90.00;;;;;;5035481;28;19921;-76
2022/12/20 02:20:29;;;;;;;;;;;0.10;90.00;;;;;;5035721;28;19933;-76
2022/12/20 02:23:13;;;;;;;;;;;0.10;90.00;;;;;;5052929;28;20031;-77
2022/12/20 02:25:43;;;;;;;;;;;0.10;89.90;;;;;;5051778;28;19948;-76
2022/12/20 02:28:21;;;;;;;;;;;0.10;89.90;;;;;;5036363;28;19964;-75
2022/12/20 02:30:46;;;;;;;;;;;0.10;89.80;;;;;;5037621;28;19924;-77
2022/12/20 02:33:12;;;;;;;;;;;0.10;89.80;;;;;;5019318;28;19921;-77
2022/12/20 02:35:37;;;;;;;;;;;0.10;89.80;;;;;;5053558;28;19924;-75
2022/12/20 02:38:23;;;;;;;;;;;0.10;89.80;;;;;;5047765;28;19921;-76
2022/12/20 02:40:48;;;;;;;;;;;0.10;90.00;;;;;;5034246;28;19916;-76
2022/12/20 02:45:58;;;;;;;;;;;0.10;89.90;;;;;;5052484;28;20337;-77
2022/12/20 02:48:24;;;;;;;;;;;0.10;89.90;;;;;;5034003;28;19924;-77
2022/12/20 02:50:50;;;;;;;;;;;0.10;90.00;;;;;;5034817;28;19942;-75
2022/12/20 02:53:15;;;;;;;;;;;0.10;90.00;;;;;;5037629;28;19921;-76
2022/12/20 02:55:56;;;;;;;;;;;0.20;90.00;;;;;;5038232;28;19917;-76
2022/12/20 02:58:27;;;;;;;;;;;0.20;90.00;;;;;;5036406;28;19974;-75
2022/12/20 03:00:52;;;;;;;;;;;0.20;90.00;;;;;;5038536;28;20008;-76
2022/12/20 03:03:24;;;;;;;;;;;0.20;89.90;;;;;;5038690;28;20007;-76
2022/12/20 03:05:50;;;;;;;;;;;0.20;89.90;;;;;;5021215;28;19928;-76
2022/12/20 03:08:16;;;;;;;;;;;0.20;90.00;;;;;;5036902;28;20019;-77
2022/12/20 03:10:41;;;;;;;;;;;0.20;89.90;;;;;;5020642;28;20011;-75
2022/12/20 03:13:06;;;;;;;;;;;0.20;90.00;;;;;;5036859;28;20418;-76
2022/12/20 03:15:32;;;;;;;;;;;0.20;89.90;;;;;;5034974;28;20595;-76
2022/12/20 03:17:57;;;;;;;;;;;0.20;89.90;;;;;;5041381;28;19973;-76
2022/12/20 03:20:23;;;;;;;;;;;0.20;89.80;;;;;;5035131;28;19925;-76
2022/12/20 03:22:48;;;;;;;;;;;0.20;89.90;;;;;;5035913;28;20409;-76
2022/12/20 03:25:14;;;;;;;;;;;0.20;89.80;;;;;;5036963;28;19921;-76
2022/12/20 03:27:39;;;;;;;;;;;0.20;89.80;;;;;;5038498;28;21591;-75
2022/12/20 03:30:05;;;;;;;;;;;0.20;89.80;;;;;;5036081;28;19917;-76
2022/12/20 03:32:30;;;;;;;;;;;0.20;89.90;;;;;;5040361;28;20298;-77
2022/12/20 03:34:56;;;;;;;;;;;0.20;89.90;;;;;;5023588;28;20427;-76
2022/12/20 03:37:21;;;;;;;;;;;0.20;89.90;;;;;;5035319;28;19929;-76
2022/12/20 03:39:47;;;;;;;;;;;0.20;89.90;;;;;;5052789;28;19925;-77
2022/12/20 03:42:12;;;;;;;;;;;0.30;90.00;;;;;;5036326;28;20542;-76
2022/12/20 03:44:38;;;;;;;;;;;0.20;89.90;;;;;;5023919;28;19921;-77
2022/12/20 03:47:03;;;;;;;;;;;0.20;89.90;;;;;;5042148;28;19931;-76
2022/12/20 03:49:29;;;;;;;;;;;0.20;89.90;;;;;;5040764;28;19960;-76
2022/12/20 03:51:54;;;;;;;;;;;0.20;89.90;;;;;;5041428;28;20008;-76
2022/12/20 03:54:19;;;;;;;;;;;0.30;90.00;;;;;;5024189;28;20446;-76
2022/12/20 03:56:45;;;;;;;;;;;0.30;90.00;;;;;;5039080;28;19924;-76
2022/12/20 03:59:10;;;;;;;;;;;0.30;90.00;;;;;;5042769;28;19948;-75
2022/12/20 04:01:37;;;;;;;;;;;0.30;89.90;;;;;;5039568;28;19921;-76
2022/12/20 04:04:02;;;;;;;;;;;0.20;89.90;;;;;;5040315;28;19921;-76
2022/12/20 04:06:28;;;;;;;;;;;0.30;90.00;;;;;;5038792;28;19951;-76
2022/12/20 04:08:53;;;;;;;;;;;0.30;90.00;;;;;;5041926;28;20454;-77
2022/12/20 04:11:19;;;;;;;;;;;0.30;90.00;;;;;;5039235;28;19932;-76
2022/12/20 04:13:47;;;;;;;;;;;0.30;90.00;;;;;;5040952;28;19925;-75
2022/12/20 04:16:13;;;;;;;;;;;0.30;90.00;;;;;;5042121;28;20465;-77
2022/12/20 04:18:38;;;;;;;;;;;0.30;90.00;;;;;;5042533;28;19920;-76
2022/12/20 04:21:06;;;;;;;;;;;0.30;90.00;;;;;;5041389;28;19925;-77
2022/12/20 04:23:32;;;;;;;;;;;0.30;90.00;;;;;;5053744;28;20310;-76
2022/12/20 04:25:57;;;;;;;;;;;0.30;89.90;;;;;;5053718;28;19967;-76
2022/12/20 04:28:23;;;;;;;;;;;0.30;89.90;;;;;;5039245;28;19929;-76
2022/12/20 04:30:48;;;;;;;;;;;0.40;90.00;;;;;;5043754;28;19920;-76
2022/12/20 04:33:14;;;;;;;;;;;0.40;90.00;;;;;;5024505;28;20414;-76
2022/12/20 04:35:39;;;;;;;;;;;0.40;90.00;;;;;;5039285;28;19974;-76
2022/12/20 04:38:04;;;;;;;;;;;0.40;90.00;;;;;;5038014;28;19929;-75
2022/12/20 04:40:30;;;;;;;;;;;0.40;90.00;;;;;;5022056;28;20707;-76
2022/12/20 04:42:55;;;;;;;;;;;0.40;90.00;;;;;;5038837;28;19917;-76
2022/12/20 04:45:21;;;;;;;;;;;0.40;90.00;;;;;;5039258;28;19931;-75
2022/12/20 04:47:46;;;;;;;;;;;0.40;90.00;;;;;;5038588;28;19963;-76
2022/12/20 04:50:12;;;;;;;;;;;0.40;89.90;;;;;;5041815;28;19932;-76
2022/12/20 04:55:21;;;;;;;;;;;0.40;89.80;;;;;;5038375;28;19948;-76
2022/12/20 04:57:47;;;;;;;;;;;0.40;89.90;;;;;;5039783;28;20371;-75
2022/12/20 05:00:14;;;;;;;;;;;0.40;89.90;;;;;;5040407;28;19967;-77
2022/12/20 05:02:39;;;;;;;;;;;0.40;89.90;;;;;;5040039;28;19921;-76
2022/12/20 05:05:05;;;;;;;;;;;0.50;90.00;;;;;;5037418;28;19982;-76
2022/12/20 05:07:30;;;;;;;;;;;0.50;90.00;;;;;;5036033;28;19931;-77
2022/12/20 05:09:56;;;;;;;;;;;0.50;90.00;;;;;;5039907;28;19928;-76
2022/12/20 05:12:21;;;;;;;;;;;0.50;90.00;;;;;;5020504;28;20383;-76
2022/12/20 05:14:47;;;;;;;;;;;0.50;90.00;;;;;;5038490;28;19970;-76
2022/12/20 05:17:12;;;;;;;;;;;0.50;90.00;;;;;;5048831;28;20024;-76
2022/12/20 05:19:38;;;;;;;;;;;0.50;90.00;;;;;;5036495;28;19921;-76
2022/12/20 05:27:31;;;;;;;;;;;0.50;90.00;;;;;;5036836;28;19932;-76
2022/12/20 05:29:57;;;;;;;;;;;0.50;90.00;;;;;;5038365;28;19920;-77
2022/12/20 05:32:22;;;;;;;;;;;0.50;89.90;;;;;;5037065;28;19982;-77
2022/12/20 05:34:48;;;;;;;;;;;0.50;89.90;;;;;;5025660;28;19921;-76
2022/12/20 05:37:14;;;;;;;;;;;0.60;90.00;;;;;;5029587;28;19927;-76
2022/12/20 05:39:39;;;;;;;;;;;0.60;90.00;;;;;;5037870;28;19928;-77
2022/12/20 05:42:05;;;;;;;;;;;0.60;90.00;;;;;;5037335;28;19921;-76
2022/12/20 05:44:30;;;;;;;;;;;0.60;90.00;;;;;;5052667;28;20007;-76
2022/12/20 05:46:56;;;;;;;;;;;0.60;90.00;;;;;;5035446;28;20740;-76
2022/12/20 05:49:21;;;;;;;;;;;0.60;90.00;;;;;;5020370;28;19928;-75
2022/12/20 05:51:47;;;;;;;;;;;0.60;90.30;;;;;;5040623;28;19952;-74
2022/12/20 05:54:12;;;;;;;;;;;0.60;90.00;;;;;;5038256;28;20803;-78
2022/12/20 05:56:38;;;;;;;;;;;0.60;90.00;;;;;;5037063;28;19920;-74
2022/12/20 05:59:03;;;;;;;;;;;0.60;90.00;;;;;;5027683;28;19935;-78
2022/12/20 06:01:29;;;;;;;;;;;0.60;90.00;;;;;;5040979;28;20399;-77
2022/12/20 06:03:55;;;;;;;;;;;0.60;90.00;;;;;;5057277;28;19924;-78
2022/12/20 06:06:20;;;;;;;;;;;0.70;90.00;;;;;;5054827;28;19925;-75
2022/12/20 06:08:46;;;;;;;;;;;0.70;90.00;;;;;;5040827;28;19921;-77
2022/12/20 06:11:12;;;;;;;;;;;0.70;90.00;;;;;;5036573;28;20007;-76
2022/12/20 06:13:37;;;;;;;;;;;0.70;90.10;;;;;;5035823;28;20563;-76
2022/12/20 06:16:03;;;;;;;;;;;0.70;90.00;;;;;;5034016;28;19924;-76
2022/12/20 06:18:28;;;;;;;;;;;0.70;90.00;;;;;;5033588;28;19947;-77
2022/12/20 06:20:54;;;;;;;;;;;0.70;90.00;;;;;;5037263;28;20039;-76
2022/12/20 06:23:19;;;;;;;;;;;0.70;90.00;;;;;;5039204;28;20369;-76
2022/12/20 06:25:45;;;;;;;;;;;0.70;90.00;;;;;;5020786;28;20054;-77
2022/12/20 06:28:11;;;;;;;;;;;0.70;90.00;;;;;;5034647;28;19968;-76
2022/12/20 06:30:36;;;;;;;;;;;0.70;90.00;;;;;;5039185;28;19920;-76
2022/12/20 06:33:01;;;;;;;;;;;0.70;90.00;;;;;;5038111;28;20395;-77
2022/12/20 06:35:27;;;;;;;;;;;0.70;90.00;;;;;;5033397;28;20002;-75
2022/12/20 06:37:53;;;;;;;;;;;0.60;89.90;;;;;;5037854;28;20406;-75
2022/12/20 06:40:18;;;;;;;;;;;0.60;89.90;;;;;;5038706;28;19917;-76
2022/12/20 06:42:43;;;;;;;;;;;0.60;90.00;;;;;;5036598;28;20517;-76
2022/12/20 06:45:09;;;;;;;;;;;0.60;90.00;;;;;;5037907;28;19931;-75
2022/12/20 06:47:35;;;;;;;;;;;0.60;90.00;;;;;;5034604;28;19974;-76
2022/12/20 06:50:00;;;;;;;;;;;0.60;90.00;;;;;;5055099;28;20654;-76
2022/12/20 06:52:26;;;;;;;;;;;0.60;90.00;;;;;;5022731;28;19940;-76
2022/12/20 06:54:51;;;;;;;;;;;0.60;90.00;;;;;;5036584;28;19924;-75
2022/12/20 06:57:17;;;;;;;;;;;0.60;90.00;;;;;;5053423;28;20555;-77
2022/12/20 06:59:42;;;;;;;;;;;0.60;90.00;;;;;;5037007;28;19974;-77
2022/12/20 07:02:09;;;;;;;;;;;0.60;90.00;;;;;;5040497;28;19925;-77
2022/12/20 07:04:34;;;;;;;;;;;0.60;90.00;;;;;;5018117;28;20469;-77
2022/12/20 07:07:00;;;;;;;;;;;0.60;90.00;;;;;;5036202;28;19925;-76
2022/12/20 07:09:25;;;;;;;;;;;0.60;90.00;;;;;;5034147;28;19990;-75
2022/12/20 07:11:51;;;;;;;;;;;0.60;90.00;;;;;;5037555;28;19921;-77
2022/12/20 07:14:16;;;;;;;;;;;0.60;90.00;;;;;;5036723;28;19927;-76
2022/12/20 07:16:42;;;;;;;;;;;0.60;90.00;;;;;;5037006;28;20575;-76
2022/12/20 07:19:09;;;;;;;;;;;0.60;90.00;;;;;;5034379;28;19920;-76
2022/12/20 07:21:35;;;;;;;;;;;0.60;90.00;;;;;;5037651;28;19947;-77
2022/12/20 07:24:01;;;;;;;;;;;0.60;90.00;;;;;;5035737;28;19921;-76
2022/12/20 07:26:26;;;;;;;;;;;0.60;90.00;;;;;;5037963;28;20664;-76
2022/12/20 07:28:52;;;;;;;;;;;0.60;90.30;;;;;;5036195;28;19964;-76
2022/12/20 07:31:17;;;;;;;;;;;0.60;90.00;;;;;;5036406;28;19990;-76
2022/12/20 07:33:43;;;;;;;;;;;0.60;90.00;;;;;;5036020;28;19920;-77
2022/12/20 07:36:09;;;;;;;;;;;0.60;90.00;;;;;;5038502;28;19925;-77
2022/12/20 07:38:35;;;;;;;;;;;0.70;90.00;;;;;;5034767;28;20487;-77
2022/12/20 07:41:05;;;;;;;;;;;0.60;90.00;;;;;;5050408;28;19980;-77
2022/12/20 07:43:30;;;;;;;;;;;0.70;90.00;;;;;;5052277;28;19925;-77
2022/12/20 07:45:56;;;;;;;;;;;0.70;90.00;;;;;;5037448;28;19970;-75
2022/12/20 07:48:22;;;;;;;;;;;0.70;90.00;;;;;;5035993;28;19931;-76
2022/12/20 07:50:50;;;;;;;;;;;0.70;90.00;;;;;;5037282;28;19932;-77
2022/12/20 07:53:16;;;;;;;;;;;0.70;90.00;;;;;;5050321;28;20472;-77
2022/12/20 07:55:42;;;;;;;;;;;0.70;90.00;;;;;;5034397;28;20474;-77
2022/12/20 07:58:07;;;;;;;;;;;0.70;90.00;;;;;;5035165;28;19921;-77
2022/12/20 08:00:33;;;;;;;;;;;0.80;90.00;;;;;;5035968;28;20526;-77
2022/12/20 08:03:06;;;;;;;;;;;0.80;90.00;;;;;;5018379;28;20383;-77
2022/12/20 08:05:32;;;;;;;;;;;0.80;90.00;;;;;;5018345;28;19929;-76
2022/12/20 08:07:57;;;;;;;;;;;0.80;90.00;;;;;;5053309;28;19931;-76
2022/12/20 08:10:23;;;;;;;;;;;0.80;90.00;;;;;;5037358;28;19939;-77
2022/12/20 08:12:48;;;;;;;;;;;0.80;90.00;;;;;;5036970;28;19921;-77
2022/12/20 08:15:14;;;;;;;;;;;0.80;90.00;;;;;;5037939;28;20059;-77
2022/12/20 08:17:39;;;;;;;;;;;0.80;90.00;;;;;;5035504;28;19917;-77
2022/12/20 08:20:05;;;;;;;;;;;0.90;90.00;;;;;;5052092;28;19928;-76
2022/12/20 08:22:31;;;;;;;;;;;0.90;90.00;;;;;;5043072;28;19924;-77
2022/12/20 08:24:56;;;;;;;;;;;0.90;90.00;;;;;;5039136;28;20003;-77
2022/12/20 08:27:22;;;;;;;;;;;0.90;90.00;;;;;;5035438;28;19931;-77
2022/12/20 08:29:48;;;;;;;;;;;0.90;90.00;;;;;;5036174;28;20299;-76
2022/12/20 08:32:14;;;;;;;;;;;0.90;90.00;;;;;;5038623;28;20038;-76
2022/12/20 08:34:40;;;;;;;;;;;1.00;90.00;;;;;;5041106;28;19932;-76
2022/12/20 08:37:06;;;;;;;;;;;1.00;90.00;;;;;;5036357;28;19924;-76
2022/12/20 08:39:31;;;;;;;;;;;1.00;90.00;;;;;;5035104;28;19920;-76
2022/12/20 08:41:57;;;;;;;;;;;1.00;90.00;;;;;;5053993;28;20306;-77
2022/12/20 08:44:22;;;;;;;;;;;1.00;90.10;;;;;;5041412;28;20294;-76
2022/12/20 08:46:47;;;;;;;;;;;1.00;90.00;;;;;;5039053;28;19925;-76
2022/12/20 08:49:13;;;;;;;;;;;1.00;90.00;;;;;;5036753;28;19925;-76
2022/12/20 08:51:38;;;;;;;;;;;1.00;90.00;;;;;;5037360;28;19984;-77
2022/12/20 08:54:04;;;;;;;;;;;1.00;90.00;;;;;;5036150;28;19994;-77
2022/12/20 08:56:29;;;;;;;;;;;1.00;90.00;;;;;;5041091;28;20757;-77
2022/12/20 08:58:55;;;;;;;;;;;1.00;90.00;;;;;;5040394;28;20008;-77
2022/12/20 09:01:21;;;;;;;;;;;1.10;90.00;;;;;;5056029;28;20538;-76
2022/12/20 09:03:47;;;;;;;;;;;1.10;90.00;;;;;;5042460;28;19928;-76
2022/12/20 09:06:13;;;;;;;;;;;1.10;90.00;;;;;;5022863;28;19921;-76
2022/12/20 09:08:39;;;;;;;;;;;1.10;90.00;;;;;;5039554;28;19925;-76
2022/12/20 09:11:04;;;;;;;;;;;1.10;90.00;;;;;;5037123;28;19935;-76
2022/12/20 09:13:30;;;;;;;;;;;1.10;90.00;;;;;;5041989;28;19917;-76
2022/12/20 09:15:55;;;;;;;;;;;1.20;90.00;;;;;;5040960;28;20397;-76
2022/12/20 09:18:21;;;;;;;;;;;1.20;90.00;;;;;;5037158;28;20028;-75
2022/12/20 09:20:46;;;;;;;;;;;1.20;90.00;;;;;;5040673;28;20070;-77
2022/12/20 09:23:12;;;;;;;;;;;1.20;90.00;;;;;;5020474;28;19964;-77
2022/12/20 09:25:37;;;;;;;;;;;1.30;90.00;;;;;;5039958;28;19925;-76
2022/12/20 09:28:03;;;;;;;;;;;1.30;90.00;;;;;;5039111;28;20302;-76
2022/12/20 09:30:28;;;;;;;;;;;1.30;90.00;;;;;;5055741;28;19925;-76
2022/12/20 09:32:55;;;;;;;;;;;1.30;90.00;;;;;;5024710;28;19921;-77
2022/12/20 09:35:21;;;;;;;;;;;1.30;90.00;;;;;;5036905;28;20294;-75
2022/12/20 09:37:46;;;;;;;;;;;1.30;90.00;;;;;;5023306;28;19920;-76
2022/12/20 09:40:19;;;;;;;;;;;1.40;90.00;;;;;;5037534;28;19975;-76
2022/12/20 09:42:45;;;;;;;;;;;1.40;90.00;;;;;;5038056;28;21235;-77
2022/12/20 09:45:12;;;;;;;;;;;1.40;90.00;;;;;;5037761;28;19925;-77
2022/12/20 09:47:38;;;;;;;;;;;1.40;90.00;;;;;;5055956;28;19924;-77
2022/12/20 09:50:05;;;;;;;;;;;1.40;90.00;;;;;;5038812;28;19920;-76
2022/12/20 09:52:48;;;;;;;;;;;1.40;90.00;;;;;;5022417;28;20457;-76
2022/12/20 09:55:33;;;;;;;;;;;1.40;90.30;;;;;;5040520;28;20391;-76
2022/12/20 09:58:17;;;;;;;;;;;1.50;90.00;;;;;;5026813;28;19975;-77
2022/12/20 10:00:46;;;;;;;;;;;1.50;90.00;;;;;;5055098;28;19917;-75
2022/12/20 10:03:14;;;;;;;;;;;1.50;90.00;;;;;;5019980;28;19949;-76
2022/12/20 10:05:49;;;;;;;;;;;1.50;90.00;;;;;;5039605;28;20017;-77
2022/12/20 10:08:20;;;;;;;;;;;1.50;90.00;;;;;;5038219;28;19920;-76
2022/12/20 10:10:55;;;;;;;;;;;1.50;90.00;;;;;;5039560;28;20719;-76
2022/12/20 10:13:39;;;;;;;;;;;1.60;90.00;;;;;;5037196;28;19974;-75
2022/12/20 10:16:11;;;;;;;;;;;1.60;89.90;;;;;;5042139;28;19974;-75
2022/12/20 10:18:45;;;;;;;;;;;1.60;89.90;;;;;;5033925;28;20011;-76
2022/12/20 10:21:11;;;;;;;;;;;1.60;89.90;;;;;;5038792;28;19947;-76
2022/12/20 10:23:36;;;;;;;;;;;1.60;89.80;;;;;;5034939;28;19929;-76
2022/12/20 10:26:04;;;;;;;;;;;1.70;89.90;;;;;;5040621;28;19921;-77
2022/12/20 10:28:30;;;;;;;;;;;1.60;89.80;;;;;;5034092;28;19964;-77
2022/12/20 10:31:03;;;;;;;;;;;1.60;89.80;;;;;;5017005;28;19925;-76
2022/12/20 10:33:30;;;;;;;;;;;1.70;89.80;;;;;;5043167;28;19921;-75
2022/12/20 10:35:55;;;;;;;;;;;1.70;89.90;;;;;;5035742;28;19936;-75
2022/12/20 10:38:22;;;;;;;;;;;1.70;89.90;;;;;;5034494;28;19921;-74
2022/12/20 10:40:54;;;;;;;;;;;1.70;89.90;;;;;;5038525;28;20089;-76
2022/12/20 10:43:58;;;;;;;;;;;1.80;90.00;;;;;;5032139;28;19925;-76
2022/12/20 10:46:32;;;;;;;;;;;1.70;89.90;;;;;;4982164;28;19921;-77
2022/12/20 10:48:58;;;;;;;;;;;1.80;90.10;;;;;;4992130;28;20535;-76
2022/12/20 10:51:23;;;;;;;;;;;1.80;89.80;;;;;;4979217;28;19928;-77
2022/12/20 10:53:49;;;;;;;;;;;1.80;89.90;;;;;;4995528;28;19917;-77
2022/12/20 10:56:30;;;;;;;;;;;1.90;89.90;;;;;;4994055;28;19946;-76
2022/12/20 10:58:59;;;;;;;;;;;1.90;89.90;;;;;;4994523;28;19921;-77
2022/12/20 11:01:28;;;;;;;;;;;1.90;89.90;;;;;;4974377;28;20094;-77
2022/12/20 11:03:55;;;;;;;;;;;1.90;89.90;;;;;;4979298;28;19925;-77
2022/12/20 11:06:21;;;;;;;;;;;2.00;90.00;;;;;;4977958;28;20527;-76
2022/12/20 11:08:49;;;;;;;;;;;2.00;90.00;;;;;;4992913;28;19965;-76
2022/12/20 11:11:19;;;;;;;;;;;2.00;89.90;;;;;;4979992;28;20000;-77
2022/12/20 11:13:45;;;;;;;;;;;2.00;89.90;;;;;;4988373;28;19929;-76
2022/12/20 11:16:33;;;;;;;;;;;2.10;89.90;;;;;;4981091;28;19936;-75
2022/12/20 11:19:05;;;;;;;;;;;2.10;89.90;;;;;;5033856;28;19971;-76
2022/12/20 11:21:48;;;;;;;;;;;2.10;89.80;;;;;;5032186;28;19967;-75
2022/12/20 11:24:17;;;;;;;;;;;2.10;89.80;;;;;;5034246;28;20387;-76
2022/12/20 11:26:45;;;;;;;;;;;2.20;89.80;;;;;;5034282;28;19956;-75
2022/12/20 11:29:23;;;;;;;;;;;2.20;89.80;;;;;;5047538;28;19935;-76
2022/12/20 11:31:54;;;;;;;;;;;2.20;89.80;;;;;;5049245;28;19932;-76
2022/12/20 11:34:29;;;;;;;;;;;2.20;89.80;;;;;;5036491;28;20411;-76
2022/12/20 11:37:13;;;;;;;;;;;2.30;89.80;;;;;;5034413;28;20441;-77
2022/12/20 11:39:45;;;;;;;;;;;2.30;89.80;;;;;;5040697;28;19928;-76
2022/12/20 11:42:23;;;;;;;;;;;2.30;89.80;;;;;;5048398;28;19935;-76
2022/12/20 11:45:10;;;;;;;;;;;2.30;89.80;;;;;;5050008;28;19929;-77
2022/12/20 11:47:35;;;;;;;;;;;2.40;89.90;;;;;;5043154;28;20266;-76
2022/12/20 11:50:16;;;;;;;;;;;2.40;89.80;;;;;;5037354;28;20447;-76
2022/12/20 11:52:49;;;;;;;;;;;2.50;89.80;;;;;;5037607;28;20450;-77
2022/12/20 11:55:19;;;;;;;;;;;2.50;89.70;;;;;;5033605;28;20432;-77
2022/12/20 11:58:03;;;;;;;;;;;2.60;89.70;;;;;;5034963;28;19992;-76
2022/12/20 12:00:30;;;;;;;;;;;2.60;89.70;;;;;;5048137;28;20055;-77
2022/12/20 12:02:56;;;;;;;;;;;2.70;89.70;;;;;;5018932;28;19964;-77
2022/12/20 12:05:26;;;;;;;;;;;2.70;89.80;;;;;;5053862;28;20367;-76
2022/12/20 12:07:56;;;;;;;;;;;2.70;89.70;;;;;;5032743;28;19935;-76
2022/12/20 12:10:34;;;;;;;;;;;2.70;89.60;;;;;;5039727;28;19932;-76
2022/12/20 12:13:09;;;;;;;;;;;2.80;89.60;;;;;;5056001;28;19917;-76
2022/12/20 12:15:36;;;;;;;;;;;2.80;89.50;;;;;;5054080;28;19924;-77
2022/12/20 12:18:04;;;;;;;;;;;2.80;89.50;;;;;;5038388;28;19924;-76
2022/12/20 12:20:39;;;;;;;;;;;2.80;89.60;;;;;;5038827;28;19982;-76
2022/12/20 12:23:06;;;;;;;;;;;2.90;89.60;;;;;;5055310;28;19921;-76
2022/12/20 12:25:31;;;;;;;;;;;2.90;89.60;;;;;;5039212;28;19925;-77
2022/12/20 12:27:57;;;;;;;;;;;2.90;89.60;;;;;;5037547;28;19925;-77
2022/12/20 12:30:22;;;;;;;;;;;2.90;89.50;;;;;;5038575;28;20011;-76
2022/12/20 12:32:54;;;;;;;;;;;2.90;89.50;;;;;;5042652;28;19960;-76
2022/12/20 12:35:20;;;;;;;;;;;2.90;89.50;;;;;;5040468;28;20012;-77
2022/12/20 12:37:51;;;;;;;;;;;2.90;89.50;;;;;;5039992;28;20016;-77
2022/12/20 12:40:35;;;;;;;;;;;3.00;89.60;;;;;;5055318;28;19924;-76
2022/12/20 12:43:19;;;;;;;;;;;3.00;89.60;;;;;;5050496;28;19921;-77
2022/12/20 12:45:46;;;;;;;;;;;3.00;90.10;;;;;;5054232;28;19927;-76
2022/12/20 12:48:17;;;;;;;;;;;3.00;89.60;;;;;;5055978;28;19932;-77
2022/12/20 12:50:44;;;;;;;;;;;3.00;89.50;;;;;;5040091;28;19917;-77
2022/12/20 12:53:19;;;;;;;;;;;3.00;89.50;;;;;;5041926;28;19917;-76
2022/12/20 12:55:46;;;;;;;;;;;3.00;89.50;;;;;;5041300;28;19920;-76
2022/12/20 12:58:14;;;;;;;;;;;3.00;89.50;;;;;;5027632;28;19928;-75
2022/12/20 13:00:54;;;;;;;;;;;3.10;89.60;;;;;;5039598;28;19920;-77
2022/12/20 13:03:38;;;;;;;;;;;3.10;89.50;;;;;;5055213;28;20323;-77
2022/12/20 13:06:22;;;;;;;;;;;3.10;89.50;;;;;;5040275;28;20296;-77
2022/12/20 13:08:57;;;;;;;;;;;3.10;89.50;;;;;;5038912;28;19983;-77
2022/12/20 13:11:32;;;;;;;;;;;3.10;89.40;;;;;;5035043;28;19929;-76
2022/12/20 13:14:10;;;;;;;;;;;3.10;89.50;;;;;;5032839;28;19917;-76
2022/12/20 13:16:37;;;;;;;;;;;3.20;89.50;;;;;;5055510;28;20272;-77
2022/12/20 13:19:07;;;;;;;;;;;3.20;89.50;;;;;;5041754;28;19927;-77
2022/12/20 13:21:34;;;;;;;;;;;3.20;89.40;;;;;;5051205;28;20669;-76
2022/12/20 13:24:18;;;;;;;;;;;3.20;89.50;;;;;;5033036;28;19917;-77
2022/12/20 13:26:50;;;;;;;;;;;3.20;89.50;;;;;;5051234;28;19921;-76
2022/12/20 13:29:23;;;;;;;;;;;3.20;89.50;;;;;;5041849;28;19921;-76
2022/12/20 13:31:48;;;;;;;;;;;3.20;89.50;;;;;;5053613;28;19929;-77
2022/12/20 13:34:32;;;;;;;;;;;3.20;89.40;;;;;;5053558;28;20781;-77
2022/12/20 13:36:58;;;;;;;;;;;3.20;89.40;;;;;;5039510;28;21196;-77
2022/12/20 13:39:24;;;;;;;;;;;3.20;89.40;;;;;;5036500;28;19935;-76
2022/12/20 13:41:50;;;;;;;;;;;3.20;89.40;;;;;;5053017;28;19925;-77
2022/12/20 13:44:16;;;;;;;;;;;3.30;89.40;;;;;;5041017;28;19944;-76
2022/12/20 13:46:49;;;;;;;;;;;3.30;89.50;;;;;;5038609;28;19924;-76
2022/12/20 13:49:21;;;;;;;;;;;3.30;89.40;;;;;;5054363;28;19928;-77
2022/12/20 13:51:47;;;;;;;;;;;3.30;89.40;;;;;;5038870;28;19927;-76
2022/12/20 13:54:19;;;;;;;;;;;3.30;89.40;;;;;;5038294;28;19920;-76
2022/12/20 13:56:46;;;;;;;;;;;3.30;90.00;;;;;;5041595;28;19931;-77
2022/12/20 13:59:23;;;;;;;;;;;3.30;89.30;;;;;;5039051;28;20196;-76
2022/12/20 14:01:50;;;;;;;;;;;3.30;89.40;;;;;;5038376;28;19935;-77
2022/12/20 14:04:16;;;;;;;;;;;3.20;89.40;;;;;;5035693;28;19921;-76
2022/12/20 14:06:42;;;;;;;;;;;3.30;89.40;;;;;;5040128;28;19921;-77
2022/12/20 14:09:25;;;;;;;;;;;3.30;89.40;;;;;;5041519;28;19959;-77
2022/12/20 14:11:50;;;;;;;;;;;3.30;89.40;;;;;;5040918;28;20523;-76
2022/12/20 14:14:16;;;;;;;;;;;3.30;89.40;;;;;;5042756;28;19924;-77
2022/12/20 14:16:41;;;;;;;;;;;3.30;89.50;;;;;;5036726;28;20262;-76
2022/12/20 14:19:12;;;;;;;;;;;3.30;89.40;;;;;;5034440;28;20460;-77
2022/12/20 14:21:39;;;;;;;;;;;3.30;89.40;;;;;;5036555;28;21078;-76
2022/12/20 14:24:04;;;;;;;;;;;3.30;89.40;;;;;;5034563;28;20371;-76
2022/12/20 14:26:32;;;;;;;;;;;3.30;89.40;;;;;;5035262;28;19927;-77
2022/12/20 14:28:58;;;;;;;;;;;3.30;89.40;;;;;;5037525;28;20023;-77
2022/12/20 14:31:32;;;;;;;;;;;3.30;89.40;;;;;;5038563;28;20004;-76
2022/12/20 14:34:05;;;;;;;;;;;3.30;89.40;;;;;;5035734;28;21876;-76
2022/12/20 14:36:30;;;;;;;;;;;3.30;89.40;;;;;;5021736;28;19913;-77
2022/12/20 14:38:56;;;;;;;;;;;3.30;89.40;;;;;;5022379;28;19927;-77
2022/12/20 14:41:35;;;;;;;;;;;3.30;89.40;;;;;;5036217;28;19917;-76
2022/12/20 14:44:12;;;;;;;;;;;3.30;89.40;;;;;;5036922;28;20348;-77